Terminal Aerodrome Forecast
Issued by NWS

Home | Current Version | Previous Version | Text Only | Print | Product List | Glossary Off
Versions: 1 2 3 4 5 6 7 8 9 10 11 12 13 14 15 16 17 18

000
FTUS43 KICT 262324
TAFSLN
TAF
KSLN 262324Z 2700/2724 12010KT P6SM VCTS BKN040CB OVC080
      TEMPO 2700/2704 VRB30G40KT 2SM +TSRA OVC020CB
     FM270400 17013KT P6SM VCTS BKN035CB
     FM271000 15008KT 6SM BR OVC008
     FM271600 16016KT P6SM SCT035
     FM271900 16015G23KT P6SM VCTS BKN035CB=

USA.gov is the U.S. government's official web portal to all federal, state and local government web resources and services.